createdAt,value
2022-10-08T00:00:52.686Z,0.00
2022-10-08T00:01:52.737Z,0.00
2022-10-08T00:02:52.720Z,0.00
2022-10-08T00:03:52.762Z,0.00
2022-10-08T00:04:52.753Z,0.00
2022-10-08T00:05:52.758Z,0.00
2022-10-08T00:06:52.770Z,0.00
2022-10-08T00:07:52.785Z,0.00
2022-10-08T00:08:52.799Z,0.00
2022-10-08T00:09:52.814Z,0.00
2022-10-08T00:10:52.827Z,0.00
2022-10-08T00:11:52.840Z,0.00
2022-10-08T00:12:52.853Z,0.00
2022-10-08T00:13:52.871Z,0.00
2022-10-08T00:14:52.879Z,0.00
2022-10-08T00:15:52.975Z,0.00
2022-10-08T00:16:52.910Z,0.00
2022-10-08T00:17:52.928Z,0.00
2022-10-08T00:18:52.935Z,0.00
2022-10-08T00:19:52.952Z,0.00
2022-10-08T00:20:52.968Z,0.00
2022-10-08T00:21:52.978Z,0.00
2022-10-08T00:22:52.994Z,0.00
2022-10-08T00:23:53.006Z,0.00
2022-10-08T00:24:53.019Z,0.00
2022-10-08T00:25:53.033Z,0.00
2022-10-08T00:26:53.045Z,0.00
2022-10-08T00:27:53.060Z,0.00
2022-10-08T00:28:53.075Z,0.00
2022-10-08T00:29:53.089Z,0.00
2022-10-08T00:30:53.100Z,0.00
2022-10-08T00:31:53.193Z,0.00
2022-10-08T00:32:55.386Z,0.00
2022-10-08T00:33:53.148Z,0.00
2022-10-08T00:34:53.158Z,0.00
2022-10-08T00:35:53.168Z,0.00
2022-10-08T00:36:53.186Z,0.00
2022-10-08T00:37:53.196Z,0.00
2022-10-08T00:38:53.211Z,0.00
2022-10-08T00:39:53.222Z,0.00
2022-10-08T00:40:53.238Z,0.00
2022-10-08T00:41:53.252Z,0.00
2022-10-08T00:42:53.263Z,0.00
2022-10-08T00:43:53.283Z,0.00
2022-10-08T00:44:53.295Z,0.00
2022-10-08T00:45:53.370Z,0.00
2022-10-08T00:46:53.319Z,0.00
2022-10-08T00:47:53.332Z,0.00
2022-10-08T00:48:53.346Z,0.00
2022-10-08T00:49:53.362Z,0.00
2022-10-08T00:50:53.372Z,0.00
2022-10-08T00:51:53.389Z,0.00
2022-10-08T00:52:53.400Z,0.00
2022-10-08T00:53:53.415Z,0.00
2022-10-08T00:54:53.426Z,0.00
2022-10-08T00:55:53.442Z,0.00
2022-10-08T00:56:53.455Z,0.00
2022-10-08T00:57:53.469Z,0.00
2022-10-08T00:58:53.482Z,0.00
2022-10-08T00:59:53.493Z,0.00
2022-10-08T01:00:53.554Z,0.00
2022-10-08T01:01:53.575Z,0.00
2022-10-08T01:02:53.536Z,0.00
2022-10-08T01:03:53.559Z,0.00
2022-10-08T01:04:53.566Z,0.00
2022-10-08T01:05:53.580Z,0.00
2022-10-08T01:06:53.591Z,0.00
2022-10-08T01:07:53.609Z,0.00
2022-10-08T01:08:53.618Z,0.00
2022-10-08T01:09:53.631Z,0.00
2022-10-08T01:10:53.646Z,0.00
2022-10-08T01:11:53.659Z,0.00
2022-10-08T01:12:53.671Z,0.00
2022-10-08T01:13:53.686Z,0.00
2022-10-08T01:14:53.698Z,0.00
2022-10-08T01:15:53.730Z,0.00
2022-10-08T01:16:53.727Z,0.00
2022-10-08T01:17:53.739Z,0.00
2022-10-08T01:18:53.753Z,0.00
2022-10-08T01:19:53.769Z,0.00
2022-10-08T01:20:53.785Z,0.00
2022-10-08T01:21:53.793Z,0.00
2022-10-08T01:22:53.807Z,0.00
2022-10-08T01:23:53.820Z,0.00
2022-10-08T01:24:53.835Z,0.00
2022-10-08T01:25:53.849Z,0.00
2022-10-08T01:26:53.862Z,0.00
2022-10-08T01:27:53.874Z,0.00
2022-10-08T01:28:53.889Z,0.00
2022-10-08T01:29:53.903Z,0.00
2022-10-08T01:30:53.928Z,0.00
2022-10-08T01:31:54.037Z,0.00
2022-10-08T01:32:53.942Z,0.00
2022-10-08T01:33:53.954Z,0.00
2022-10-08T01:34:53.970Z,0.00
2022-10-08T01:35:54.003Z,0.00
2022-10-08T01:36:54.010Z,0.00
2022-10-08T01:37:54.013Z,0.00
2022-10-08T01:38:54.025Z,0.00
2022-10-08T01:39:54.037Z,0.00
2022-10-08T01:40:54.052Z,0.00
2022-10-08T01:41:54.065Z,0.00
2022-10-08T01:42:54.077Z,0.00
2022-10-08T01:43:54.092Z,0.00
2022-10-08T01:44:54.105Z,0.00
2022-10-08T01:45:54.201Z,0.00
2022-10-08T01:46:54.133Z,0.00
2022-10-08T01:47:54.146Z,0.00
2022-10-08T01:48:54.160Z,0.00
2022-10-08T01:49:54.178Z,0.00
2022-10-08T01:50:54.189Z,0.00
2022-10-08T01:51:54.197Z,0.00
2022-10-08T01:52:54.216Z,0.00
2022-10-08T01:53:54.228Z,0.00
2022-10-08T01:54:54.240Z,0.00
2022-10-08T01:55:54.253Z,0.00
2022-10-08T01:56:54.268Z,0.00
2022-10-08T01:57:54.281Z,0.00
2022-10-08T01:58:54.299Z,0.00
2022-10-08T01:59:54.309Z,0.00
2022-10-08T02:00:54.379Z,0.00
2022-10-08T02:01:54.362Z,0.00
2022-10-08T02:02:54.348Z,0.00
2022-10-08T02:03:54.364Z,0.00
2022-10-08T02:04:54.378Z,0.00
2022-10-08T02:05:54.395Z,0.00
2022-10-08T02:06:54.406Z,0.00
2022-10-08T02:07:54.428Z,0.00
2022-10-08T02:08:54.431Z,0.00
2022-10-08T02:09:54.446Z,0.00
2022-10-08T02:10:54.458Z,0.00
2022-10-08T02:11:54.473Z,0.00
2022-10-08T02:12:54.486Z,0.00
2022-10-08T02:13:54.498Z,0.00
2022-10-08T02:14:54.515Z,0.00
2022-10-08T02:15:54.529Z,0.00
2022-10-08T02:16:54.578Z,0.00
2022-10-08T02:17:54.558Z,0.00
2022-10-08T02:18:54.568Z,0.00
2022-10-08T02:19:54.582Z,0.00
2022-10-08T02:20:54.596Z,0.00
2022-10-08T02:21:54.609Z,0.00
2022-10-08T02:22:54.622Z,0.00
2022-10-08T02:23:54.637Z,0.00
2022-10-08T02:24:54.650Z,0.00
2022-10-08T02:25:54.663Z,0.00
2022-10-08T02:26:54.678Z,0.00
2022-10-08T02:27:54.693Z,0.00
2022-10-08T02:28:54.703Z,0.00
2022-10-08T02:29:54.719Z,0.00
2022-10-08T02:30:54.732Z,0.00
2022-10-08T02:31:54.856Z,0.00
2022-10-08T02:32:54.759Z,0.00
2022-10-08T02:33:54.774Z,0.00
2022-10-08T02:34:54.787Z,0.00
2022-10-08T02:35:54.801Z,0.00
2022-10-08T02:36:54.817Z,0.00
2022-10-08T02:37:54.828Z,0.00
2022-10-08T02:38:54.851Z,0.00
2022-10-08T02:39:54.853Z,0.00
2022-10-08T02:40:54.868Z,0.00
2022-10-08T02:41:54.884Z,0.00
2022-10-08T02:42:54.900Z,0.00
2022-10-08T02:43:54.913Z,0.00
2022-10-08T02:44:54.924Z,0.00
2022-10-08T02:45:54.969Z,0.00
2022-10-08T02:46:54.950Z,0.00
2022-10-08T02:47:54.964Z,0.00
2022-10-08T02:48:54.979Z,0.00
2022-10-08T02:49:54.993Z,0.00
2022-10-08T02:50:55.008Z,0.00
2022-10-08T02:51:55.020Z,0.00
2022-10-08T02:52:55.035Z,0.00
2022-10-08T02:53:55.048Z,0.00
2022-10-08T02:54:55.060Z,0.00
2022-10-08T02:55:55.074Z,0.00
2022-10-08T02:56:55.088Z,0.00
2022-10-08T02:57:55.103Z,0.00
2022-10-08T02:58:55.117Z,0.00
2022-10-08T02:59:55.127Z,0.00
2022-10-08T03:00:55.195Z,0.00
2022-10-08T03:01:55.212Z,0.00
2022-10-08T03:02:55.168Z,0.00
2022-10-08T03:03:55.183Z,0.00
2022-10-08T03:04:55.198Z,0.00
2022-10-08T03:05:55.216Z,0.00
2022-10-08T03:06:55.224Z,0.00
2022-10-08T03:07:55.241Z,0.00
2022-10-08T03:08:55.252Z,0.00
2022-10-08T03:09:55.267Z,0.00
2022-10-08T03:10:55.281Z,0.00
2022-10-08T03:11:55.298Z,0.00
2022-10-08T03:12:55.308Z,0.00
2022-10-08T03:13:55.325Z,0.00
2022-10-08T03:14:55.335Z,0.00
2022-10-08T03:15:55.350Z,0.00
2022-10-08T03:16:55.444Z,0.00
2022-10-08T03:17:55.381Z,0.00
2022-10-08T03:18:55.389Z,0.00
2022-10-08T03:19:55.403Z,0.00
2022-10-08T03:20:55.418Z,0.00
2022-10-08T03:21:55.436Z,0.00
2022-10-08T03:22:55.444Z,0.00
2022-10-08T03:23:55.458Z,0.00
2022-10-08T03:24:56.924Z,0.00
2022-10-08T03:25:55.488Z,0.00
2022-10-08T03:26:55.500Z,0.00
2022-10-08T03:27:55.514Z,0.00
2022-10-08T03:28:55.528Z,0.00
2022-10-08T03:29:55.543Z,0.00
2022-10-08T03:30:55.585Z,0.00
2022-10-08T03:31:55.571Z,0.00
2022-10-08T03:32:55.584Z,0.00
2022-10-08T03:33:55.598Z,0.00
2022-10-08T03:34:55.607Z,0.00
2022-10-08T03:35:55.624Z,0.00
2022-10-08T03:36:55.637Z,0.00
2022-10-08T03:37:55.652Z,0.00
2022-10-08T03:38:55.664Z,0.00
2022-10-08T03:39:55.680Z,0.00
2022-10-08T03:40:55.693Z,0.00
2022-10-08T03:41:55.709Z,0.00
2022-10-08T03:42:55.720Z,0.00
2022-10-08T03:43:55.735Z,0.00
2022-10-08T03:44:55.750Z,0.00
2022-10-08T03:45:55.794Z,0.00
2022-10-08T03:46:55.777Z,0.00
2022-10-08T03:47:55.795Z,0.00
2022-10-08T03:48:55.804Z,0.00
2022-10-08T03:49:55.819Z,0.00
2022-10-08T03:50:55.842Z,0.00
2022-10-08T03:51:55.862Z,0.00
2022-10-08T03:52:55.859Z,0.00
2022-10-08T03:53:55.875Z,0.00
2022-10-08T03:54:55.890Z,0.00
2022-10-08T03:55:55.917Z,0.00
2022-10-08T03:56:55.924Z,0.00
2022-10-08T03:57:55.930Z,0.00
2022-10-08T03:58:55.947Z,0.00
2022-10-08T03:59:55.968Z,0.00
2022-10-08T04:00:55.973Z,0.00
2022-10-08T04:01:56.049Z,0.00
2022-10-08T04:02:56.053Z,0.00
2022-10-08T04:03:56.015Z,0.00
2022-10-08T04:04:56.027Z,0.00
2022-10-08T04:05:56.044Z,0.00
2022-10-08T04:06:56.058Z,0.00
2022-10-08T04:07:56.070Z,0.00
2022-10-08T04:08:56.086Z,0.00
2022-10-08T04:09:56.101Z,0.00
2022-10-08T04:10:56.118Z,0.00
2022-10-08T04:11:56.128Z,0.00
2022-10-08T04:12:56.141Z,0.00
2022-10-08T04:13:56.157Z,0.00
2022-10-08T04:14:56.171Z,0.00
2022-10-08T04:15:56.221Z,0.00
2022-10-08T04:16:56.198Z,0.00
2022-10-08T04:17:56.214Z,0.00
2022-10-08T04:18:56.232Z,0.00
2022-10-08T04:19:56.241Z,0.00
2022-10-08T04:20:56.261Z,0.00
2022-10-08T04:21:56.271Z,0.00
2022-10-08T04:22:56.291Z,0.00
2022-10-08T04:23:56.298Z,0.00
2022-10-08T04:24:56.314Z,0.00
2022-10-08T04:25:56.327Z,0.00
2022-10-08T04:26:56.341Z,0.00
2022-10-08T04:27:56.355Z,0.00
2022-10-08T04:28:56.419Z,0.00
2022-10-08T04:29:56.385Z,0.00
2022-10-08T04:30:56.457Z,0.00
2022-10-08T04:31:56.412Z,0.00
2022-10-08T04:32:56.425Z,0.00
2022-10-08T04:33:56.440Z,0.00
2022-10-08T04:34:56.454Z,0.00
2022-10-08T04:35:59.888Z,0.00
2022-10-08T04:36:56.483Z,0.00
2022-10-08T04:37:56.499Z,0.00
2022-10-08T04:38:56.511Z,0.00
2022-10-08T04:39:56.525Z,0.00
2022-10-08T04:40:56.540Z,0.00
2022-10-08T04:41:56.559Z,0.00
2022-10-08T04:42:56.567Z,0.00
2022-10-08T04:43:56.582Z,0.00
2022-10-08T04:44:56.596Z,0.00
2022-10-08T04:45:56.691Z,0.00
2022-10-08T04:46:56.624Z,0.00
2022-10-08T04:47:56.640Z,4.00
2022-10-08T04:48:56.651Z,4.00
2022-10-08T04:49:56.668Z,0.00
2022-10-08T04:50:56.683Z,4.00
2022-10-08T04:51:56.695Z,4.00
2022-10-08T04:52:56.710Z,8.00
2022-10-08T04:53:56.728Z,4.00
2022-10-08T04:54:56.738Z,8.00
2022-10-08T04:55:56.751Z,8.00
2022-10-08T04:56:56.763Z,8.00
2022-10-08T04:57:56.780Z,12.00
2022-10-08T04:58:56.796Z,16.00
2022-10-08T05:00:17.013Z,16.00
2022-10-08T05:00:56.825Z,20.00
2022-10-08T05:01:56.927Z,24.00
2022-10-08T05:02:56.872Z,28.00
2022-10-08T05:03:56.867Z,36.00
2022-10-08T05:04:56.878Z,40.00
2022-10-08T05:05:56.891Z,44.00
2022-10-08T05:06:56.906Z,56.00
2022-10-08T05:07:56.919Z,64.00
2022-10-08T05:08:56.934Z,72.00
2022-10-08T05:09:56.948Z,80.00
2022-10-08T05:10:56.960Z,92.00
2022-10-08T05:11:56.974Z,100.00
2022-10-08T05:12:56.988Z,112.00
2022-10-08T05:13:57.003Z,128.00
2022-10-08T05:14:57.028Z,140.00
2022-10-08T05:15:57.102Z,152.00
2022-10-08T05:16:57.047Z,168.00
2022-10-08T05:17:57.062Z,184.00
2022-10-08T05:18:57.083Z,200.00
2022-10-08T05:19:57.086Z,220.00
2022-10-08T05:20:57.100Z,240.00
2022-10-08T05:21:57.114Z,264.00
2022-10-08T05:22:57.128Z,288.00
2022-10-08T05:23:57.139Z,312.00
2022-10-08T05:24:57.154Z,336.00
2022-10-08T05:25:57.174Z,364.00
2022-10-08T05:26:58.866Z,380.00
2022-10-08T05:27:57.196Z,388.00
2022-10-08T05:28:57.209Z,396.00
2022-10-08T05:29:57.223Z,408.00
2022-10-08T05:30:57.263Z,420.00
2022-10-08T05:31:57.258Z,432.00
2022-10-08T05:32:57.264Z,444.00
2022-10-08T05:33:57.281Z,456.00
2022-10-08T05:34:57.291Z,472.00
2022-10-08T05:35:57.304Z,500.00
2022-10-08T05:36:57.320Z,524.00
2022-10-08T05:37:57.333Z,544.00
2022-10-08T05:38:57.346Z,560.00
2022-10-08T05:39:57.363Z,576.00
2022-10-08T05:40:57.375Z,596.00
2022-10-08T05:41:57.386Z,612.00
2022-10-08T05:42:57.408Z,628.00
2022-10-08T05:43:57.415Z,656.00
2022-10-08T05:44:57.432Z,696.00
2022-10-08T05:45:57.444Z,744.00
2022-10-08T05:46:57.589Z,772.00
2022-10-08T05:47:57.469Z,784.00
2022-10-08T05:48:57.483Z,800.00
2022-10-08T05:49:57.501Z,828.00
2022-10-08T05:50:57.510Z,844.00
2022-10-08T05:51:57.531Z,860.00
2022-10-08T05:52:57.542Z,868.00
2022-10-08T05:53:57.552Z,868.00
2022-10-08T05:54:57.567Z,872.00
2022-10-08T05:55:57.582Z,880.00
2022-10-08T05:56:57.594Z,892.00
2022-10-08T05:57:57.608Z,904.00
2022-10-08T05:58:57.622Z,928.00
2022-10-08T05:59:57.636Z,960.00
2022-10-08T06:00:57.649Z,1004.00
2022-10-08T06:01:57.664Z,1056.00
2022-10-08T06:02:57.867Z,1104.00
2022-10-08T06:03:57.690Z,1128.00
2022-10-08T06:04:57.777Z,1148.00
2022-10-08T06:05:57.720Z,1172.00
2022-10-08T06:06:57.734Z,1196.00
2022-10-08T06:07:57.765Z,1236.00
2022-10-08T06:08:57.775Z,1332.00
2022-10-08T06:09:57.787Z,1460.00
2022-10-08T06:10:57.787Z,1532.00
2022-10-08T06:11:57.803Z,1500.00
2022-10-08T06:12:57.830Z,1420.00
2022-10-08T06:13:57.832Z,1364.00
2022-10-08T06:14:57.841Z,1376.00
2022-10-08T06:15:57.889Z,1416.00
2022-10-08T06:16:57.872Z,1500.00
2022-10-08T06:17:57.895Z,1560.00
2022-10-08T06:18:57.899Z,1556.00
2022-10-08T06:19:57.915Z,1560.00
2022-10-08T06:20:57.927Z,1632.00
2022-10-08T06:21:57.941Z,1748.00
2022-10-08T06:22:57.956Z,1864.00
2022-10-08T06:23:57.968Z,1968.00
2022-10-08T06:24:57.983Z,2088.00
2022-10-08T06:25:57.998Z,2108.00
2022-10-08T06:26:58.010Z,2136.00
2022-10-08T06:27:58.026Z,2108.00
2022-10-08T06:28:58.040Z,2128.00
2022-10-08T06:29:58.053Z,2080.00
2022-10-08T06:30:58.091Z,2016.00
2022-10-08T06:31:58.081Z,1956.00
2022-10-08T06:32:58.096Z,1908.00
2022-10-08T06:33:58.109Z,1876.00
2022-10-08T06:34:58.124Z,1852.00
2022-10-08T06:35:58.137Z,1848.00
2022-10-08T06:36:58.153Z,1880.00
2022-10-08T06:37:58.165Z,1932.00
2022-10-08T06:38:58.185Z,1996.00
2022-10-08T06:39:58.194Z,2016.00
2022-10-08T06:40:58.209Z,2036.00
2022-10-08T06:41:58.222Z,2072.00
2022-10-08T06:42:58.235Z,2236.00
2022-10-08T06:43:58.249Z,2268.00
2022-10-08T06:45:02.060Z,2200.00
2022-10-08T06:45:58.279Z,2192.00
2022-10-08T06:46:58.353Z,2300.00
2022-10-08T06:47:58.303Z,2288.00
2022-10-08T06:48:58.318Z,2300.00
2022-10-08T06:49:58.335Z,2272.00
2022-10-08T06:50:58.359Z,2316.00
2022-10-08T06:51:58.365Z,2412.00
2022-10-08T06:52:58.379Z,2452.00
2022-10-08T06:54:02.868Z,2564.00
2022-10-08T06:54:58.405Z,2756.00
2022-10-08T06:55:58.418Z,2856.00
2022-10-08T06:56:58.433Z,3068.00
2022-10-08T06:57:58.446Z,3012.00
2022-10-08T06:58:58.457Z,3140.00
2022-10-08T06:59:58.474Z,3212.00
2022-10-08T07:00:58.514Z,3108.00
2022-10-08T07:01:58.560Z,2892.00
2022-10-08T07:02:58.519Z,2576.00
2022-10-08T07:03:58.531Z,2512.00
2022-10-08T07:04:58.547Z,2544.00
2022-10-08T07:05:58.560Z,2704.00
2022-10-08T07:06:58.573Z,2856.00
2022-10-08T07:07:58.589Z,2876.00
2022-10-08T07:08:58.607Z,2900.00
2022-10-08T07:09:58.619Z,3060.00
2022-10-08T07:10:58.630Z,2844.00
2022-10-08T07:11:58.644Z,2384.00
2022-10-08T07:12:58.659Z,2268.00
2022-10-08T07:13:58.673Z,2292.00
2022-10-08T07:14:58.688Z,2384.00
2022-10-08T07:15:58.776Z,2428.00
2022-10-08T07:16:58.717Z,2492.00
2022-10-08T07:17:58.731Z,2532.00
2022-10-08T07:18:58.951Z,2684.00
2022-10-08T07:19:58.760Z,2620.00
2022-10-08T07:20:58.773Z,2828.00
2022-10-08T07:22:01.308Z,3264.00
2022-10-08T07:22:58.800Z,3280.00
2022-10-08T07:23:58.818Z,3264.00
2022-10-08T07:24:58.831Z,3244.00
2022-10-08T07:25:58.846Z,3236.00
2022-10-08T07:26:58.858Z,3168.00
2022-10-08T07:27:58.876Z,3040.00
2022-10-08T07:28:58.905Z,2964.00
2022-10-08T07:29:58.983Z,3104.00
2022-10-08T07:30:58.917Z,3168.00
2022-10-08T07:31:58.965Z,3116.00
2022-10-08T07:32:58.944Z,3072.00
2022-10-08T07:33:58.959Z,2960.00
2022-10-08T07:35:00.134Z,2896.00
2022-10-08T07:35:58.988Z,3096.00
2022-10-08T07:36:59.004Z,3144.00
2022-10-08T07:37:59.019Z,3044.00
2022-10-08T07:38:59.031Z,2952.00
2022-10-08T07:39:59.074Z,2932.00
2022-10-08T07:40:59.063Z,2976.00
2022-10-08T07:41:59.075Z,3156.00
2022-10-08T07:42:59.090Z,3132.00
2022-10-08T07:43:59.110Z,3252.00
2022-10-08T07:44:59.120Z,3240.00
2022-10-08T07:45:59.169Z,3072.00
2022-10-08T07:46:59.150Z,3096.00
2022-10-08T07:47:59.163Z,3044.00
2022-10-08T07:48:59.344Z,3064.00
2022-10-08T07:49:59.319Z,3008.00
2022-10-08T07:50:59.207Z,3308.00
2022-10-08T07:51:59.226Z,3476.00
2022-10-08T07:52:59.238Z,3492.00
2022-10-08T07:54:02.555Z,3504.00
2022-10-08T07:54:59.266Z,3516.00
2022-10-08T07:55:59.282Z,3524.00
2022-10-08T07:56:59.298Z,3536.00
2022-10-08T07:57:59.312Z,3544.00
2022-10-08T07:58:59.326Z,3560.00
2022-10-08T07:59:59.342Z,3588.00
2022-10-08T08:00:59.483Z,3580.00
2022-10-08T08:01:59.410Z,3568.00
2022-10-08T08:02:59.392Z,3576.00
2022-10-08T08:03:59.403Z,3592.00
2022-10-08T08:04:59.418Z,3604.00
2022-10-08T08:05:59.434Z,3616.00
2022-10-08T08:06:59.447Z,3644.00
2022-10-08T08:07:59.463Z,3656.00
2022-10-08T08:08:59.476Z,3676.00
2022-10-08T08:09:59.495Z,3688.00
2022-10-08T08:10:59.508Z,3708.00
2022-10-08T08:11:59.524Z,3720.00
2022-10-08T08:12:59.540Z,3720.00
2022-10-08T08:13:59.559Z,3736.00
2022-10-08T08:14:59.570Z,3752.00
2022-10-08T08:15:59.674Z,3768.00
2022-10-08T08:16:59.645Z,3792.00
2022-10-08T08:17:59.618Z,3792.00
2022-10-08T08:18:59.630Z,3816.00
2022-10-08T08:19:59.647Z,3852.00
2022-10-08T08:20:59.684Z,3880.00
2022-10-08T08:21:59.691Z,3900.00
2022-10-08T08:22:59.695Z,3896.00
2022-10-08T08:23:59.711Z,3904.00
2022-10-08T08:24:59.740Z,3936.00
2022-10-08T08:25:59.759Z,3976.00
2022-10-08T08:26:59.763Z,4024.00
2022-10-08T08:27:59.918Z,4068.00
2022-10-08T08:28:59.798Z,4104.00
2022-10-08T08:29:59.809Z,4192.00
2022-10-08T08:30:59.825Z,4204.00
2022-10-08T08:31:59.888Z,4200.00
2022-10-08T08:32:59.854Z,4212.00
2022-10-08T08:33:59.873Z,4280.00
2022-10-08T08:34:59.886Z,4328.00
2022-10-08T08:35:59.906Z,4380.00
2022-10-08T08:36:59.918Z,4448.00
2022-10-08T08:37:59.940Z,4524.00
2022-10-08T08:38:59.954Z,4516.00
2022-10-08T08:39:59.970Z,4564.00
2022-10-08T08:40:59.988Z,4772.00
2022-10-08T08:42:00.004Z,4988.00
2022-10-08T08:43:00.019Z,5640.00
2022-10-08T08:44:00.036Z,7388.00
2022-10-08T08:45:00.055Z,9628.00
2022-10-08T08:46:00.165Z,11156.00
2022-10-08T08:47:00.112Z,11772.00
2022-10-08T08:48:00.104Z,11968.00
2022-10-08T08:49:00.121Z,11596.00
2022-10-08T08:50:00.147Z,11392.00
2022-10-08T08:51:00.155Z,10864.00
2022-10-08T08:52:00.172Z,10476.00
2022-10-08T08:53:00.189Z,10128.00
2022-10-08T08:54:00.208Z,9020.00
2022-10-08T08:55:00.224Z,9200.00
2022-10-08T08:56:00.246Z,9744.00
2022-10-08T08:57:00.261Z,8784.00
2022-10-08T08:58:00.280Z,8468.00
2022-10-08T08:59:00.299Z,9404.00
2022-10-08T09:00:00.313Z,10728.00
2022-10-08T09:01:00.384Z,11192.00
2022-10-08T09:02:00.351Z,10556.00
2022-10-08T09:03:00.369Z,11396.00
2022-10-08T09:04:00.387Z,10636.00
2022-10-08T09:05:00.487Z,8372.00
2022-10-08T09:06:00.423Z,7056.00
2022-10-08T09:07:00.441Z,6828.00
2022-10-08T09:08:00.459Z,6216.00
2022-10-08T09:09:00.485Z,5796.00
2022-10-08T09:10:00.498Z,5756.00
2022-10-08T09:11:00.514Z,6572.00
2022-10-08T09:12:00.533Z,10736.00
2022-10-08T09:13:00.552Z,9956.00
2022-10-08T09:14:00.570Z,11144.00
2022-10-08T09:15:00.590Z,14200.00
2022-10-08T09:16:00.609Z,13264.00
2022-10-08T09:17:00.678Z,12832.00
2022-10-08T09:18:00.646Z,11188.00
2022-10-08T09:19:00.665Z,9228.00
2022-10-08T09:20:00.700Z,7816.00
2022-10-08T09:21:00.704Z,8388.00
2022-10-08T09:22:00.722Z,9156.00
2022-10-08T09:23:00.738Z,12564.00
2022-10-08T09:24:00.759Z,13060.00
2022-10-08T09:25:00.779Z,13028.00
2022-10-08T09:26:00.800Z,13424.00
2022-10-08T09:27:00.815Z,13612.00
2022-10-08T09:28:00.878Z,14316.00
2022-10-08T09:29:00.854Z,15352.00
2022-10-08T09:30:00.874Z,14920.00
2022-10-08T09:31:02.523Z,15164.00
2022-10-08T09:32:00.912Z,16076.00
2022-10-08T09:33:00.931Z,15584.00
2022-10-08T09:34:00.959Z,16724.00
2022-10-08T09:35:00.975Z,19680.00
2022-10-08T09:36:00.991Z,20896.00
2022-10-08T09:37:01.011Z,19424.00
2022-10-08T09:38:05.409Z,17440.00
2022-10-08T09:39:01.048Z,16144.00
2022-10-08T09:40:01.071Z,14568.00
2022-10-08T09:41:01.090Z,15432.00
2022-10-08T09:42:01.110Z,18368.00
2022-10-08T09:43:01.130Z,17760.00
2022-10-08T09:44:01.152Z,16288.00
2022-10-08T09:45:01.170Z,15640.00
2022-10-08T09:46:01.229Z,16832.00
2022-10-08T09:47:01.210Z,15856.00
2022-10-08T09:48:01.235Z,13068.00
2022-10-08T09:49:01.250Z,11812.00
2022-10-08T09:50:01.273Z,12004.00
2022-10-08T09:51:01.293Z,12820.00
2022-10-08T09:52:01.315Z,13044.00
2022-10-08T09:53:01.334Z,12744.00
2022-10-08T09:54:01.357Z,15936.00
2022-10-08T09:55:01.374Z,17984.00
2022-10-08T09:56:01.398Z,16088.00
2022-10-08T09:57:01.444Z,15272.00
2022-10-08T09:58:01.437Z,13428.00
2022-10-08T09:59:01.458Z,12388.00
2022-10-08T10:00:01.484Z,13108.00
2022-10-08T10:01:01.526Z,13364.00
2022-10-08T10:02:01.517Z,12376.00
2022-10-08T10:03:01.540Z,13352.00
2022-10-08T10:04:01.637Z,15920.00
2022-10-08T10:05:01.584Z,17792.00
2022-10-08T10:06:01.617Z,20928.00
2022-10-08T10:07:01.633Z,18784.00
2022-10-08T10:08:01.645Z,19136.00
2022-10-08T10:09:01.674Z,18496.00
2022-10-08T10:10:01.691Z,18688.00
2022-10-08T10:11:01.708Z,18880.00
2022-10-08T10:12:01.736Z,19200.00
2022-10-08T10:13:01.749Z,18944.00
2022-10-08T10:14:01.771Z,18464.00
2022-10-08T10:15:01.791Z,17536.00
2022-10-08T10:16:01.814Z,16388.00
2022-10-08T10:17:01.867Z,15968.00
2022-10-08T10:18:01.857Z,16116.00
2022-10-08T10:19:01.879Z,15252.00
2022-10-08T10:20:01.897Z,14868.00
2022-10-08T10:21:01.921Z,15296.00
2022-10-08T10:22:01.942Z,15704.00
2022-10-08T10:23:01.961Z,16368.00
2022-10-08T10:24:01.983Z,16584.00
2022-10-08T10:25:02.005Z,17792.00
2022-10-08T10:26:06.389Z,18944.00
2022-10-08T10:27:02.049Z,17728.00
2022-10-08T10:28:02.148Z,17088.00
2022-10-08T10:29:02.090Z,17728.00
2022-10-08T10:30:02.115Z,17792.00
2022-10-08T10:31:02.152Z,17088.00
2022-10-08T10:32:02.158Z,17440.00
2022-10-08T10:33:02.179Z,17824.00
2022-10-08T10:34:02.205Z,17280.00
2022-10-08T10:35:02.219Z,16552.00
2022-10-08T10:36:02.239Z,15540.00
2022-10-08T10:37:02.262Z,13340.00
2022-10-08T10:38:02.283Z,10928.00
2022-10-08T10:39:02.306Z,8668.00
2022-10-08T10:40:02.325Z,7540.00
2022-10-08T10:41:02.350Z,7688.00
2022-10-08T10:42:02.371Z,8732.00
2022-10-08T10:43:02.389Z,9520.00
2022-10-08T10:44:02.414Z,10056.00
2022-10-08T10:45:02.432Z,12304.00
2022-10-08T10:46:02.487Z,11460.00
2022-10-08T10:47:02.475Z,9276.00
2022-10-08T10:48:02.495Z,7468.00
2022-10-08T10:49:02.515Z,6428.00
2022-10-08T10:50:02.537Z,5736.00
2022-10-08T10:51:02.559Z,5312.00
2022-10-08T10:52:02.579Z,5128.00
2022-10-08T10:53:02.599Z,4956.00
2022-10-08T10:54:02.626Z,5004.00
2022-10-08T10:55:02.642Z,5476.00
2022-10-08T10:56:02.662Z,6272.00
2022-10-08T10:57:02.683Z,7016.00
2022-10-08T10:58:02.705Z,7352.00
2022-10-08T10:59:02.724Z,7604.00
2022-10-08T11:00:02.755Z,8732.00
2022-10-08T11:01:02.848Z,10004.00
2022-10-08T11:02:02.783Z,10052.00
2022-10-08T11:03:02.886Z,9164.00
2022-10-08T11:04:02.828Z,8740.00
2022-10-08T11:05:02.848Z,8860.00
2022-10-08T11:06:02.867Z,10020.00
2022-10-08T11:07:02.886Z,9596.00
2022-10-08T11:08:02.908Z,8004.00
2022-10-08T11:09:02.928Z,7224.00
2022-10-08T11:10:02.947Z,7184.00
2022-10-08T11:11:02.970Z,6312.00
2022-10-08T11:12:02.988Z,5684.00
2022-10-08T11:13:03.015Z,5972.00
2022-10-08T11:14:03.029Z,7332.00
2022-10-08T11:15:03.049Z,6532.00
2022-10-08T11:16:03.103Z,5048.00
2022-10-08T11:17:03.089Z,5116.00
2022-10-08T11:18:03.109Z,4868.00
2022-10-08T11:19:03.130Z,4656.00
2022-10-08T11:20:03.149Z,4524.00
2022-10-08T11:21:03.168Z,4484.00
2022-10-08T11:22:03.190Z,4020.00
2022-10-08T11:23:03.208Z,3164.00
2022-10-08T11:24:03.230Z,2700.00
2022-10-08T11:25:03.252Z,3072.00
2022-10-08T11:26:21.464Z,3276.00
2022-10-08T11:27:03.290Z,3324.00
2022-10-08T11:28:03.383Z,3824.00
2022-10-08T11:29:03.327Z,4204.00
2022-10-08T11:30:03.350Z,4360.00
2022-10-08T11:31:03.391Z,4656.00
2022-10-08T11:32:03.389Z,4604.00
2022-10-08T11:33:03.406Z,3856.00
2022-10-08T11:34:03.433Z,3468.00
2022-10-08T11:35:03.444Z,4548.00
2022-10-08T11:36:03.463Z,6092.00
2022-10-08T11:37:03.485Z,7612.00
2022-10-08T11:38:03.504Z,7196.00
2022-10-08T11:39:03.523Z,6356.00
2022-10-08T11:40:03.546Z,6288.00
2022-10-08T11:41:03.560Z,6572.00
2022-10-08T11:42:03.579Z,6580.00
2022-10-08T11:43:03.613Z,6956.00
2022-10-08T11:44:03.631Z,7716.00
2022-10-08T11:45:03.636Z,7168.00
2022-10-08T11:46:03.730Z,6404.00
2022-10-08T11:47:03.674Z,8156.00
2022-10-08T11:48:06.484Z,9164.00
2022-10-08T11:49:03.713Z,9304.00
2022-10-08T11:50:03.734Z,9448.00
2022-10-08T11:51:03.750Z,9772.00
2022-10-08T11:52:03.769Z,10408.00
2022-10-08T11:53:03.788Z,10956.00
2022-10-08T11:54:03.807Z,11456.00
2022-10-08T11:55:03.825Z,11516.00
2022-10-08T11:56:03.844Z,11488.00
2022-10-08T11:57:03.868Z,11596.00
2022-10-08T11:58:08.424Z,11864.00
2022-10-08T11:59:03.901Z,12232.00
2022-10-08T12:00:08.338Z,12932.00
2022-10-08T12:01:03.938Z,13516.00
2022-10-08T12:02:04.007Z,14748.00
2022-10-08T12:03:04.077Z,15220.00
2022-10-08T12:04:03.994Z,15288.00
2022-10-08T12:05:04.016Z,15028.00
2022-10-08T12:06:04.035Z,15004.00
2022-10-08T12:07:04.055Z,15732.00
2022-10-08T12:08:04.089Z,16176.00
2022-10-08T12:09:04.108Z,15616.00
2022-10-08T12:10:04.111Z,14780.00
2022-10-08T12:11:04.146Z,14176.00
2022-10-08T12:12:04.153Z,14112.00
2022-10-08T12:13:04.168Z,14116.00
2022-10-08T12:14:04.188Z,13960.00
2022-10-08T12:15:04.205Z,13456.00
2022-10-08T12:16:04.295Z,13212.00
2022-10-08T12:17:04.248Z,13868.00
2022-10-08T12:18:04.266Z,14116.00
2022-10-08T12:19:04.286Z,13784.00
2022-10-08T12:20:04.315Z,12464.00
2022-10-08T12:21:04.325Z,11300.00
2022-10-08T12:22:04.345Z,10608.00
2022-10-08T12:23:04.365Z,10812.00
2022-10-08T12:24:04.385Z,10680.00
2022-10-08T12:25:04.404Z,11336.00
2022-10-08T12:26:04.423Z,12220.00
2022-10-08T12:27:04.442Z,13424.00
2022-10-08T12:28:04.507Z,14020.00
2022-10-08T12:29:04.483Z,13888.00
2022-10-08T12:30:04.503Z,13280.00
2022-10-08T12:31:04.563Z,13248.00